Time;durP1;ratioP1;P1;durP2;ratioP2;P2;SDS_P1;SDS_P2;PMS_P1;PMS_P2;Temp;Humidity;BMP_temperature;BMP_pressure;BME280_temperature;BME280_humidity;BME280_pressure;Samples;Min_cycle;Max_cycle;Signal;HPM_P1;HPM_P2
2021/05/09 00:02:09;;;;;;;22.40;4.38;;;;;;;;;;5062236;28;20446;-61
2021/05/09 00:04:36;;;;;;;26.45;4.82;;;;;;;;;;5067860;28;20024;-61
2021/05/09 00:07:03;;;;;;;18.42;3.80;;;;;;;;;;5063413;28;20026;-62
2021/05/09 00:09:31;;;;;;;23.85;3.92;;;;;;;;;;5068811;28;20028;-61
2021/05/09 00:11:58;;;;;;;22.98;4.13;;;;;;;;;;5063244;28;20025;-62
2021/05/09 00:14:25;;;;;;;32.83;4.22;;;;;;;;;;5069793;28;20060;-61
2021/05/09 00:16:52;;;;;;;21.02;3.90;;;;;;;;;;5066675;28;20044;-61
2021/05/09 00:19:19;;;;;;;18.20;4.20;;;;;;;;;;5072540;28;20017;-62
2021/05/09 00:21:46;;;;;;;28.08;4.68;;;;;;;;;;5066984;28;20025;-61
2021/05/09 00:24:13;;;;;;;11.50;3.33;;;;;;;;;;5053197;28;20028;-63
2021/05/09 00:26:40;;;;;;;21.73;4.93;;;;;;;;;;5069280;28;20100;-63
2021/05/09 00:29:07;;;;;;;20.95;3.83;;;;;;;;;;5068476;28;20474;-62
2021/05/09 00:31:34;;;;;;;19.48;3.75;;;;;;;;;;5066900;28;20029;-62
2021/05/09 00:34:01;;;;;;;18.23;3.90;;;;;;;;;;5067737;28;20033;-62
2021/05/09 00:36:28;;;;;;;16.88;4.20;;;;;;;;;;5055714;28;20071;-62
2021/05/09 00:38:55;;;;;;;24.17;3.33;;;;;;;;;;5071469;28;20046;-62
2021/05/09 00:41:22;;;;;;;21.35;3.97;;;;;;;;;;5045039;28;20374;-61
2021/05/09 00:43:49;;;;;;;18.55;3.40;;;;;;;;;;5063127;28;20810;-61
2021/05/09 00:46:16;;;;;;;22.20;4.00;;;;;;;;;;5044994;28;20116;-63
2021/05/09 00:48:43;;;;;;;18.85;3.72;;;;;;;;;;5062139;28;20016;-62
2021/05/09 00:51:10;;;;;;;16.88;3.30;;;;;;;;;;5069993;28;20047;-61
2021/05/09 00:53:38;;;;;;;17.83;3.50;;;;;;;;;;5053582;28;20513;-63
2021/05/09 00:56:05;;;;;;;17.15;4.35;;;;;;;;;;5054505;28;20115;-64
2021/05/09 00:58:35;;;;;;;16.20;3.78;;;;;;;;;;5067817;28;20078;-62
2021/05/09 01:01:02;;;;;;;20.15;4.07;;;;;;;;;;5044203;28;20110;-62
2021/05/09 01:03:30;;;;;;;28.13;4.28;;;;;;;;;;5066417;28;20020;-64
2021/05/09 01:05:58;;;;;;;24.23;3.60;;;;;;;;;;5053789;28;20024;-63
2021/05/09 01:08:25;;;;;;;36.65;5.00;;;;;;;;;;5072435;28;20110;-62
2021/05/09 01:10:52;;;;;;;43.28;5.47;;;;;;;;;;5067773;28;20472;-62
2021/05/09 01:13:21;;;;;;;34.65;4.95;;;;;;;;;;5071477;28;20473;-65
2021/05/09 01:15:48;;;;;;;43.55;4.93;;;;;;;;;;5068684;28;20048;-67
2021/05/09 01:18:15;;;;;;;38.42;4.88;;;;;;;;;;5063375;28;20036;-66
2021/05/09 01:20:42;;;;;;;32.22;4.65;;;;;;;;;;5054716;28;20062;-65
2021/05/09 01:23:09;;;;;;;22.80;4.53;;;;;;;;;;5056742;28;20048;-62
2021/05/09 01:25:36;;;;;;;65.25;5.40;;;;;;;;;;5055801;28;20013;-64
2021/05/09 01:28:05;;;;;;;54.70;4.70;;;;;;;;;;5054008;28;20037;-63
2021/05/09 01:30:32;;;;;;;30.17;4.65;;;;;;;;;;5055741;28;20013;-63
2021/05/09 01:32:59;;;;;;;34.35;4.57;;;;;;;;;;5064082;28;20099;-63
2021/05/09 01:35:26;;;;;;;30.15;4.00;;;;;;;;;;5057910;28;20151;-63
2021/05/09 01:37:53;;;;;;;26.73;3.97;;;;;;;;;;5055057;28;20025;-62
2021/05/09 01:40:20;;;;;;;24.98;3.85;;;;;;;;;;5044335;28;20013;-62
2021/05/09 01:42:47;;;;;;;32.58;5.05;;;;;;;;;;5054101;28;20047;-63
2021/05/09 01:45:14;;;;;;;23.80;4.20;;;;;;;;;;5054859;28;20013;-63
2021/05/09 01:47:42;;;;;;;20.42;4.28;;;;;;;;;;5054621;28;20489;-63
2021/05/09 01:50:14;;;;;;;17.90;3.70;;;;;;;;;;5035883;28;20681;-62
2021/05/09 01:52:41;;;;;;;26.25;4.55;;;;;;;;;;5050866;28;20111;-63
2021/05/09 01:55:10;;;;;;;21.77;3.97;;;;;;;;;;5051596;28;20094;-62
2021/05/09 01:57:37;;;;;;;21.40;3.50;;;;;;;;;;5060011;28;20028;-60
2021/05/09 02:00:22;;;;;;;20.70;3.88;;;;;;;;;;5057015;28;20145;-61
2021/05/09 02:02:49;;;;;;;20.00;3.95;;;;;;;;;;5052573;28;20116;-61
2021/05/09 02:05:17;;;;;;;21.70;4.07;;;;;;;;;;5053324;28;20052;-61
2021/05/09 02:07:44;;;;;;;20.00;3.63;;;;;;;;;;5052381;28;20103;-62
2021/05/09 02:10:12;;;;;;;23.30;4.43;;;;;;;;;;5034506;28;20021;-63
2021/05/09 02:12:39;;;;;;;24.05;3.75;;;;;;;;;;5038048;28;20488;-62
2021/05/09 02:15:07;;;;;;;23.42;4.28;;;;;;;;;;5053235;28;20447;-63
2021/05/09 02:17:34;;;;;;;18.60;3.75;;;;;;;;;;5064952;28;20116;-62
2021/05/09 02:20:01;;;;;;;22.25;4.10;;;;;;;;;;5067648;28;20503;-63
2021/05/09 02:22:28;;;;;;;23.10;5.47;;;;;;;;;;5068420;28;20059;-63
2021/05/09 02:24:55;;;;;;;25.30;4.15;;;;;;;;;;5064589;28;20648;-62
2021/05/09 02:27:22;;;;;;;12.45;3.78;;;;;;;;;;5065542;28;20029;-63
2021/05/09 02:29:49;;;;;;;15.95;4.20;;;;;;;;;;5065717;28;20480;-63
2021/05/09 02:32:16;;;;;;;18.73;4.18;;;;;;;;;;5066731;28;20028;-63
2021/05/09 02:34:43;;;;;;;20.85;5.13;;;;;;;;;;5064179;28;20029;-63
2021/05/09 02:37:10;;;;;;;13.77;3.90;;;;;;;;;;5068733;28;20041;-64
2021/05/09 02:39:37;;;;;;;20.73;4.45;;;;;;;;;;5058221;28;20380;-64
2021/05/09 02:42:05;;;;;;;20.50;4.75;;;;;;;;;;5066616;28;20124;-62
2021/05/09 02:44:32;;;;;;;16.05;3.83;;;;;;;;;;5062029;28;20143;-61
2021/05/09 02:46:59;;;;;;;15.13;3.67;;;;;;;;;;5064367;28;20055;-61
2021/05/09 02:49:26;;;;;;;26.30;4.28;;;;;;;;;;5066854;28;20030;-62
2021/05/09 02:51:53;;;;;;;16.52;3.00;;;;;;;;;;5058038;28;21081;-63
2021/05/09 02:54:20;;;;;;;16.83;3.78;;;;;;;;;;5067734;28;20025;-63
2021/05/09 02:56:47;;;;;;;15.15;4.55;;;;;;;;;;5064187;28;20136;-63
2021/05/09 02:59:14;;;;;;;11.40;4.15;;;;;;;;;;5068572;28;20111;-64
2021/05/09 03:01:41;;;;;;;16.45;3.53;;;;;;;;;;5046122;28;20119;-64
2021/05/09 03:04:08;;;;;;;16.13;3.85;;;;;;;;;;5038836;28;20055;-62
2021/05/09 03:06:35;;;;;;;21.35;3.72;;;;;;;;;;5046615;28;20021;-62
2021/05/09 03:09:03;;;;;;;13.10;3.47;;;;;;;;;;5058748;28;20138;-64
2021/05/09 03:11:30;;;;;;;11.77;3.30;;;;;;;;;;5062023;28;20027;-64
2021/05/09 03:13:57;;;;;;;15.20;3.40;;;;;;;;;;5068133;28;20021;-62
2021/05/09 03:16:25;;;;;;;9.65;2.90;;;;;;;;;;5173995;22;20500;-61
2021/05/09 03:18:52;;;;;;;15.95;3.22;;;;;;;;;;5081021;28;20024;-63
2021/05/09 03:21:21;;;;;;;13.70;3.17;;;;;;;;;;5082867;28;20020;-62
2021/05/09 03:23:48;;;;;;;13.63;2.88;;;;;;;;;;5086703;28;20024;-63
2021/05/09 03:26:16;;;;;;;11.80;2.47;;;;;;;;;;5086087;28;20138;-62
2021/05/09 03:28:44;;;;;;;10.85;2.80;;;;;;;;;;5079522;28;20021;-62
2021/05/09 03:31:11;;;;;;;14.52;2.95;;;;;;;;;;5082981;28;20031;-62
2021/05/09 03:33:39;;;;;;;14.75;3.13;;;;;;;;;;5088881;28;20173;-60
2021/05/09 03:36:07;;;;;;;14.35;3.17;;;;;;;;;;5087068;28;20038;-62
2021/05/09 03:38:36;;;;;;;22.10;2.90;;;;;;;;;;5083212;28;20032;-61
2021/05/09 03:41:03;;;;;;;17.70;3.42;;;;;;;;;;5079162;28;20033;-62
2021/05/09 03:43:31;;;;;;;11.40;2.95;;;;;;;;;;5076980;28;20031;-62
2021/05/09 03:45:58;;;;;;;13.10;2.90;;;;;;;;;;5088168;28;20476;-62
2021/05/09 03:48:26;;;;;;;11.52;2.65;;;;;;;;;;5082332;28;20101;-62
2021/05/09 03:50:53;;;;;;;10.07;3.00;;;;;;;;;;5088863;28;20447;-62
2021/05/09 03:53:22;;;;;;;9.15;2.22;;;;;;;;;;5085674;28;20370;-62
2021/05/09 03:55:49;;;;;;;13.25;3.05;;;;;;;;;;5084189;28;20125;-63
2021/05/09 03:58:17;;;;;;;9.80;2.70;;;;;;;;;;5090698;28;20035;-63
2021/05/09 04:00:44;;;;;;;16.65;2.67;;;;;;;;;;5077477;28;20028;-63
2021/05/09 04:03:26;;;;;;;15.25;3.10;;;;;;;;;;5092929;28;20028;-62
2021/05/09 04:05:54;;;;;;;6.45;2.25;;;;;;;;;;5094711;28;20032;-62
2021/05/09 04:08:22;;;;;;;9.38;2.60;;;;;;;;;;5093626;28;20081;-62
2021/05/09 04:10:51;;;;;;;9.60;2.50;;;;;;;;;;5094728;28;20032;-61
2021/05/09 04:13:19;;;;;;;14.55;2.35;;;;;;;;;;5094977;28;20081;-61
2021/05/09 04:15:46;;;;;;;9.55;2.25;;;;;;;;;;5093073;28;20048;-62
2021/05/09 04:18:13;;;;;;;11.48;2.50;;;;;;;;;;5078121;28;20021;-62
2021/05/09 04:20:41;;;;;;;7.30;2.55;;;;;;;;;;5074415;28;20060;-61
2021/05/09 04:23:09;;;;;;;10.35;2.50;;;;;;;;;;5069263;28;20063;-61
2021/05/09 04:25:36;;;;;;;12.15;2.63;;;;;;;;;;5053989;28;20553;-61
2021/05/09 04:28:04;;;;;;;8.40;2.95;;;;;;;;;;5067566;28;20016;-62
2021/05/09 04:30:31;;;;;;;11.43;2.28;;;;;;;;;;5073122;28;20034;-61
2021/05/09 04:33:02;;;;;;;9.35;2.42;;;;;;;;;;5074178;28;20480;-61
2021/05/09 04:35:29;;;;;;;5.68;2.05;;;;;;;;;;5072877;28;20024;-61
2021/05/09 04:37:57;;;;;;;6.53;2.15;;;;;;;;;;5072838;28;20476;-60
2021/05/09 04:40:24;;;;;;;6.15;2.10;;;;;;;;;;5073163;28;20024;-61
2021/05/09 04:42:52;;;;;;;11.07;2.22;;;;;;;;;;5074034;28;20046;-60
2021/05/09 04:45:19;;;;;;;8.98;2.60;;;;;;;;;;5073977;28;20357;-61
2021/05/09 04:47:46;;;;;;;8.38;2.05;;;;;;;;;;5074055;28;20073;-63
2021/05/09 04:50:14;;;;;;;24.42;2.80;;;;;;;;;;5074027;28;20016;-60
2021/05/09 04:52:41;;;;;;;8.77;2.20;;;;;;;;;;5073920;28;20024;-61
2021/05/09 04:55:09;;;;;;;7.03;2.50;;;;;;;;;;5073421;28;20016;-63
2021/05/09 04:57:36;;;;;;;11.43;2.95;;;;;;;;;;5073442;28;20488;-61
2021/05/09 05:00:05;;;;;;;6.72;2.25;;;;;;;;;;5073351;28;20031;-62
2021/05/09 05:02:32;;;;;;;9.18;2.10;;;;;;;;;;5073873;28;20021;-62
2021/05/09 05:04:59;;;;;;;6.97;2.20;;;;;;;;;;5073873;28;20021;-62
2021/05/09 05:07:26;;;;;;;9.45;2.25;;;;;;;;;;5073716;28;20467;-62
2021/05/09 05:09:53;;;;;;;6.30;2.40;;;;;;;;;;5073679;28;20513;-63
2021/05/09 05:12:20;;;;;;;10.27;2.35;;;;;;;;;;5073694;28;20476;-62
2021/05/09 05:14:47;;;;;;;6.97;2.20;;;;;;;;;;5073879;28;20032;-64
2021/05/09 05:17:14;;;;;;;7.63;2.20;;;;;;;;;;5073159;28;20053;-65
2021/05/09 05:19:41;;;;;;;5.25;1.92;;;;;;;;;;5072285;28;20021;-63
2021/05/09 05:22:08;;;;;;;8.52;2.10;;;;;;;;;;5073440;28;20042;-64
2021/05/09 05:24:35;;;;;;;4.32;2.00;;;;;;;;;;5073503;28;20025;-64
2021/05/09 05:27:02;;;;;;;6.40;2.20;;;;;;;;;;5073335;28;20352;-64
2021/05/09 05:29:29;;;;;;;8.98;2.35;;;;;;;;;;5073433;28;20020;-63
2021/05/09 05:31:56;;;;;;;5.00;1.92;;;;;;;;;;5073283;28;20060;-64
2021/05/09 05:34:23;;;;;;;7.53;2.15;;;;;;;;;;5073174;28;20072;-63
2021/05/09 05:36:50;;;;;;;8.20;2.55;;;;;;;;;;5073021;28;20043;-64
2021/05/09 05:39:19;;;;;;;6.43;2.08;;;;;;;;;;5073072;28;20032;-63
2021/05/09 05:41:46;;;;;;;12.35;2.67;;;;;;;;;;5072985;28;20024;-64
2021/05/09 05:44:13;;;;;;;7.18;2.15;;;;;;;;;;5073495;28;20100;-64
2021/05/09 05:46:40;;;;;;;8.07;2.20;;;;;;;;;;5073090;28;20078;-63
2021/05/09 05:49:07;;;;;;;6.20;2.05;;;;;;;;;;5072999;28;20078;-64
2021/05/09 05:51:34;;;;;;;6.88;2.10;;;;;;;;;;5072798;28;20029;-62
2021/05/09 05:54:01;;;;;;;5.03;1.98;;;;;;;;;;5073095;28;20020;-64
2021/05/09 05:56:28;;;;;;;6.68;2.15;;;;;;;;;;5072610;28;20028;-63
2021/05/09 05:58:55;;;;;;;5.38;2.25;;;;;;;;;;5072777;28;20046;-62
2021/05/09 06:01:22;;;;;;;6.97;2.30;;;;;;;;;;5072811;28;20036;-64
2021/05/09 06:03:49;;;;;;;11.02;2.15;;;;;;;;;;5072738;28;20099;-63
2021/05/09 06:06:16;;;;;;;7.72;2.10;;;;;;;;;;5071773;28;20020;-62
2021/05/09 06:08:45;;;;;;;5.40;1.98;;;;;;;;;;5072611;28;20025;-63
2021/05/09 06:11:11;;;;;;;4.90;1.90;;;;;;;;;;5072541;28;20020;-64
2021/05/09 06:13:38;;;;;;;5.63;2.13;;;;;;;;;;5072479;28;20523;-63
2021/05/09 06:16:05;;;;;;;5.70;1.67;;;;;;;;;;5072107;28;20072;-64
2021/05/09 06:18:32;;;;;;;6.60;1.98;;;;;;;;;;5072374;28;20024;-63
2021/05/09 06:20:59;;;;;;;4.80;2.17;;;;;;;;;;5072204;28;20111;-64
2021/05/09 06:23:28;;;;;;;3.72;1.85;;;;;;;;;;5072519;28;20020;-62
2021/05/09 06:25:56;;;;;;;6.22;1.95;;;;;;;;;;5072218;28;20055;-63
2021/05/09 06:28:23;;;;;;;3.90;1.42;;;;;;;;;;5072411;28;20016;-63
2021/05/09 06:30:50;;;;;;;9.10;1.85;;;;;;;;;;5071138;28;20066;-64
2021/05/09 06:33:17;;;;;;;6.50;2.00;;;;;;;;;;5072196;28;20013;-63
2021/05/09 06:35:44;;;;;;;5.68;2.13;;;;;;;;;;5072059;28;20028;-64
2021/05/09 06:38:11;;;;;;;7.22;2.45;;;;;;;;;;5072359;28;20032;-63
2021/05/09 06:40:39;;;;;;;6.20;2.13;;;;;;;;;;5070950;28;20495;-62
2021/05/09 06:43:07;;;;;;;6.25;1.83;;;;;;;;;;5072252;28;20028;-62
2021/05/09 06:45:34;;;;;;;6.38;2.15;;;;;;;;;;5072352;28;20127;-63
2021/05/09 06:48:03;;;;;;;5.40;1.83;;;;;;;;;;5072103;28;20537;-63
2021/05/09 06:50:31;;;;;;;7.28;2.03;;;;;;;;;;5071967;28;20032;-63
2021/05/09 06:52:59;;;;;;;4.28;1.98;;;;;;;;;;5072255;28;20070;-64
2021/05/09 06:55:26;;;;;;;5.90;2.00;;;;;;;;;;5063224;28;20131;-62
2021/05/09 06:57:53;;;;;;;3.92;1.70;;;;;;;;;;5050666;28;20508;-64
2021/05/09 07:00:21;;;;;;;7.78;1.95;;;;;;;;;;5050460;28;20029;-61
2021/05/09 07:02:50;;;;;;;5.65;2.38;;;;;;;;;;5050976;28;20048;-61
2021/05/09 07:05:17;;;;;;;4.13;2.33;;;;;;;;;;5051808;28;20048;-61
2021/05/09 07:07:51;;;;;;;5.22;1.95;;;;;;;;;;5249538;22;20100;-64
2021/05/09 07:10:21;;;;;;;5.32;1.60;;;;;;;;;;5071356;28;20029;-63
2021/05/09 07:12:49;;;;;;;5.28;2.17;;;;;;;;;;5072212;28;20036;-64
2021/05/09 07:15:21;;;;;;;3.88;1.75;;;;;;;;;;5072083;28;20021;-63
2021/05/09 07:17:47;;;;;;;;;;;;;;;;;;5073071;28;20089;-63
2021/05/09 07:20:14;;;;;;;5.22;1.92;;;;;;;;;;5076428;28;19904;-64
2021/05/09 07:22:51;;;;;;;3.80;1.50;;;;;;;;;;5058160;28;20021;-64
2021/05/09 07:25:18;;;;;;;6.55;1.85;;;;;;;;;;5076005;28;20029;-64
2021/05/09 07:27:45;;;;;;;3.45;1.83;;;;;;;;;;5076036;28;20029;-64
2021/05/09 07:30:13;;;;;;;6.05;1.73;;;;;;;;;;5076076;28;20025;-63
2021/05/09 07:32:40;;;;;;;6.28;2.13;;;;;;;;;;5076062;28;20431;-63
2021/05/09 07:35:07;;;;;;;5.03;1.88;;;;;;;;;;5075948;28;20016;-64
2021/05/09 07:37:34;;;;;;;3.70;1.75;;;;;;;;;;5058014;28;20043;-64
2021/05/09 07:40:01;;;;;;;3.67;1.83;;;;;;;;;;5057905;28;20535;-64
2021/05/09 07:42:28;;;;;;;6.05;2.00;;;;;;;;;;5075614;28;20134;-64
2021/05/09 07:44:58;;;;;;;4.25;1.60;;;;;;;;;;5075879;28;20021;-64
2021/05/09 07:47:25;;;;;;;4.57;1.73;;;;;;;;;;5076124;28;20099;-63
2021/05/09 07:49:52;;;;;;;4.40;1.65;;;;;;;;;;5075685;28;20017;-64
2021/05/09 07:52:19;;;;;;;5.80;2.10;;;;;;;;;;5075729;28;20410;-64
2021/05/09 07:54:47;;;;;;;3.78;1.60;;;;;;;;;;5075522;28;20119;-64
2021/05/09 07:57:13;;;;;;;2.50;1.50;;;;;;;;;;5075417;28;20108;-63
2021/05/09 07:59:41;;;;;;;2.95;1.85;;;;;;;;;;5075629;28;20028;-64
2021/05/09 08:02:10;;;;;;;2.97;1.70;;;;;;;;;;5075555;28;20020;-64
2021/05/09 08:04:37;;;;;;;6.75;1.85;;;;;;;;;;5075495;28;20023;-64
2021/05/09 08:07:04;;;;;;;4.63;1.80;;;;;;;;;;5075155;28;20416;-64
2021/05/09 08:09:31;;;;;;;3.92;1.70;;;;;;;;;;5075316;28;20028;-64
2021/05/09 08:11:58;;;;;;;4.18;2.03;;;;;;;;;;5075073;28;20028;-63
2021/05/09 08:14:25;;;;;;;2.92;1.50;;;;;;;;;;5075363;28;20040;-64
2021/05/09 08:16:53;;;;;;;3.67;1.50;;;;;;;;;;5075097;28;20041;-64
2021/05/09 08:19:20;;;;;;;6.18;1.48;;;;;;;;;;5075081;28;20020;-61
2021/05/09 08:21:48;;;;;;;3.25;1.95;;;;;;;;;;5075330;28;20075;-61
2021/05/09 08:24:15;;;;;;;3.72;1.67;;;;;;;;;;5075260;28;20043;-61
2021/05/09 08:26:42;;;;;;;4.07;1.63;;;;;;;;;;5074901;28;20032;-61
2021/05/09 08:29:09;;;;;;;4.47;1.80;;;;;;;;;;5074582;28;20027;-61
2021/05/09 08:31:36;;;;;;;3.60;1.77;;;;;;;;;;5074782;28;20029;-62
2021/05/09 08:34:04;;;;;;;3.28;1.42;;;;;;;;;;5075077;28;20426;-61
2021/05/09 08:36:31;;;;;;;3.85;1.80;;;;;;;;;;5074662;28;20078;-60
2021/05/09 08:38:58;;;;;;;2.70;1.55;;;;;;;;;;5074918;28;20066;-61
2021/05/09 08:41:26;;;;;;;3.40;1.60;;;;;;;;;;5074717;28;20081;-61
2021/05/09 08:43:53;;;;;;;4.13;1.67;;;;;;;;;;5074799;28;20031;-62
2021/05/09 08:46:23;;;;;;;4.80;1.67;;;;;;;;;;5074789;28;20055;-61
2021/05/09 08:48:51;;;;;;;3.83;1.58;;;;;;;;;;5056573;28;20464;-61
2021/05/09 08:51:18;;;;;;;3.95;1.60;;;;;;;;;;5074603;28;20380;-61
2021/05/09 08:53:48;;;;;;;7.45;1.63;;;;;;;;;;5074679;28;20017;-61
2021/05/09 08:56:15;;;;;;;4.38;1.80;;;;;;;;;;5074264;28;20032;-61
2021/05/09 08:58:42;;;;;;;4.32;1.60;;;;;;;;;;5074473;28;20020;-61
2021/05/09 09:01:09;;;;;;;3.45;1.67;;;;;;;;;;5074655;28;20086;-63
2021/05/09 09:03:36;;;;;;;6.07;1.60;;;;;;;;;;5074342;28;20019;-61
2021/05/09 09:06:12;;;;;;;2.47;1.50;;;;;;;;;;5056346;28;20034;-62
2021/05/09 09:08:52;;;;;;;3.75;1.73;;;;;;;;;;5073956;28;20076;-61
2021/05/09 09:11:29;;;;;;;4.05;1.70;;;;;;;;;;5074118;28;20028;-62
2021/05/09 09:14:16;;;;;;;3.35;1.40;;;;;;;;;;5074323;28;20056;-61
2021/05/09 09:16:43;;;;;;;2.50;1.20;;;;;;;;;;5074066;28;20032;-61
2021/05/09 09:19:12;;;;;;;4.97;1.67;;;;;;;;;;5073782;28;20422;-61
2021/05/09 09:21:39;;;;;;;3.67;1.70;;;;;;;;;;5073937;28;20054;-61
2021/05/09 09:24:13;;;;;;;4.38;1.75;;;;;;;;;;5074074;28;20529;-63
2021/05/09 09:26:44;;;;;;;4.03;1.63;;;;;;;;;;5073999;28;20055;-62
2021/05/09 09:29:23;;;;;;;5.07;1.67;;;;;;;;;;5073892;28;20016;-62
2021/05/09 09:31:54;;;;;;;4.68;1.60;;;;;;;;;;5073585;28;20027;-60
2021/05/09 09:34:22;;;;;;;4.60;1.88;;;;;;;;;;5055771;28;20108;-61
2021/05/09 09:36:49;;;;;;;3.15;1.65;;;;;;;;;;5073672;28;20028;-63
2021/05/09 09:39:16;;;;;;;2.92;1.70;;;;;;;;;;5073635;28;20028;-62
2021/05/09 09:41:49;;;;;;;5.28;2.08;;;;;;;;;;5073517;28;20491;-64
2021/05/09 09:44:17;;;;;;;5.93;1.75;;;;;;;;;;5073724;28;20031;-63
2021/05/09 09:46:52;;;;;;;5.07;1.75;;;;;;;;;;5073463;28;20028;-64
2021/05/09 09:49:23;;;;;;;4.82;1.80;;;;;;;;;;5073465;28;20024;-64
2021/05/09 09:51:53;;;;;;;2.85;1.42;;;;;;;;;;5073472;28;20082;-64
2021/05/09 09:54:41;;;;;;;3.38;1.60;;;;;;;;;;5073460;28;20095;-64
2021/05/09 09:57:10;;;;;;;5.28;1.85;;;;;;;;;;5073155;28;20039;-64
2021/05/09 09:59:37;;;;;;;3.85;1.83;;;;;;;;;;5073222;28;20077;-63
2021/05/09 10:02:06;;;;;;;4.57;1.90;;;;;;;;;;5073223;28;20025;-65
2021/05/09 10:04:33;;;;;;;6.45;1.80;;;;;;;;;;5073148;28;20016;-64
2021/05/09 10:07:05;;;;;;;5.65;1.98;;;;;;;;;;5072993;28;20510;-64
2021/05/09 10:09:32;;;;;;;4.05;2.15;;;;;;;;;;5072999;28;20035;-63
2021/05/09 10:11:59;;;;;;;6.63;2.33;;;;;;;;;;5072983;28;20422;-64
2021/05/09 10:14:27;;;;;;;4.35;1.77;;;;;;;;;;5073138;28;20016;-64
2021/05/09 10:16:54;;;;;;;6.88;2.25;;;;;;;;;;5072763;28;20044;-65
2021/05/09 10:19:26;;;;;;;5.63;1.70;;;;;;;;;;5072875;28;20404;-64
2021/05/09 10:21:53;;;;;;;3.95;2.03;;;;;;;;;;5073059;28;20027;-63
2021/05/09 10:24:22;;;;;;;3.28;1.63;;;;;;;;;;5072666;28;20101;-64
2021/05/09 10:27:06;;;;;;;4.38;1.80;;;;;;;;;;5072793;28;20116;-64
2021/05/09 10:29:37;;;;;;;7.10;2.33;;;;;;;;;;5072544;28;20028;-64
2021/05/09 10:32:30;;;;;;;4.05;2.20;;;;;;;;;;5072631;28;20422;-64
2021/05/09 10:34:57;;;;;;;;;;;;;;;;;;5072876;28;20021;-64
2021/05/09 10:37:36;;;;;;;4.65;2.10;;;;;;;;;;5072687;28;19979;-64
2021/05/09 10:40:23;;;;;;;4.35;1.77;;;;;;;;;;5072795;28;20025;-64
2021/05/09 10:43:15;;;;;;;6.97;2.03;;;;;;;;;;5072707;28;20484;-63
2021/05/09 10:45:41;;;;;;;4.57;2.38;;;;;;;;;;5072667;28;20037;-65
2021/05/09 10:50:57;;;;;;;4.00;1.80;;;;;;;;;;5072651;28;20025;-63
2021/05/09 10:53:36;;;;;;;3.03;1.80;;;;;;;;;;5072116;28;20086;-61
2021/05/09 10:56:15;;;;;;;3.70;1.90;;;;;;;;;;5072209;28;20056;-60
2021/05/09 10:58:44;;;;;;;3.60;1.98;;;;;;;;;;5072430;28;20035;-60
2021/05/09 11:01:11;;;;;;;3.63;1.90;;;;;;;;;;5072516;28;20158;-61
2021/05/09 11:03:41;;;;;;;6.20;1.75;;;;;;;;;;5072419;28;20028;-61
2021/05/09 11:06:08;;;;;;;5.28;1.70;;;;;;;;;;5054203;28;20375;-60
2021/05/09 11:08:45;;;;;;;5.07;1.90;;;;;;;;;;5054154;28;20569;-62
2021/05/09 11:11:27;;;;;;;5.15;1.95;;;;;;;;;;5072454;28;20028;-61
2021/05/09 11:14:04;;;;;;;5.72;1.92;;;;;;;;;;5072520;28;20055;-62
2021/05/09 11:16:35;;;;;;;4.45;2.10;;;;;;;;;;5054362;28;20446;-64
2021/05/09 11:19:03;;;;;;;5.75;2.30;;;;;;;;;;5072146;28;20031;-64
2021/05/09 11:21:32;;;;;;;3.33;1.95;;;;;;;;;;5072192;28;20090;-64
2021/05/09 11:24:03;;;;;;;4.97;2.00;;;;;;;;;;5072314;28;20029;-63
2021/05/09 11:26:31;;;;;;;5.00;2.08;;;;;;;;;;5072186;28;20492;-64
2021/05/09 11:29:10;;;;;;;4.50;2.17;;;;;;;;;;5071961;28;20146;-64
2021/05/09 11:31:42;;;;;;;5.80;2.45;;;;;;;;;;5053950;28;20032;-64
2021/05/09 11:34:09;;;;;;;4.03;2.13;;;;;;;;;;5072076;28;20021;-64
2021/05/09 11:36:37;;;;;;;3.83;2.20;;;;;;;;;;5072001;28;20033;-64
2021/05/09 11:39:17;;;;;;;2.80;1.95;;;;;;;;;;5071906;28;20371;-64
2021/05/09 11:41:56;;;;;;;4.22;2.13;;;;;;;;;;5072007;28;20028;-64
2021/05/09 11:44:27;;;;;;;2.60;1.80;;;;;;;;;;5071887;28;20435;-62
2021/05/09 11:46:55;;;;;;;4.72;1.90;;;;;;;;;;5072103;28;20032;-63
2021/05/09 11:49:24;;;;;;;3.08;1.85;;;;;;;;;;5071941;28;20048;-63
2021/05/09 11:51:51;;;;;;;4.05;1.90;;;;;;;;;;5071832;28;20032;-64
2021/05/09 11:54:19;;;;;;;3.97;2.05;;;;;;;;;;5071992;28;20354;-63
2021/05/09 11:56:49;;;;;;;3.63;1.80;;;;;;;;;;5071402;28;20043;-64
2021/05/09 11:59:34;;;;;;;3.65;2.03;;;;;;;;;;5071881;28;20021;-64
2021/05/09 12:02:03;;;;;;;7.65;2.30;;;;;;;;;;5071799;28;20117;-63
2021/05/09 12:04:30;;;;;;;5.50;2.22;;;;;;;;;;5072021;28;20027;-63
2021/05/09 12:07:02;;;;;;;3.40;2.05;;;;;;;;;;5057537;28;20170;-64
2021/05/09 12:09:29;;;;;;;4.82;2.05;;;;;;;;;;5075265;28;20039;-64
2021/05/09 12:11:57;;;;;;;4.40;2.10;;;;;;;;;;5075286;28;20027;-63
2021/05/09 12:14:25;;;;;;;5.80;2.65;;;;;;;;;;5075315;28;20020;-62
2021/05/09 12:16:52;;;;;;;3.92;2.05;;;;;;;;;;5075150;28;20040;-64
2021/05/09 12:19:19;;;;;;;3.30;1.88;;;;;;;;;;5075256;28;20104;-64
2021/05/09 12:21:56;;;;;;;3.42;2.03;;;;;;;;;;5075220;28;20082;-64
2021/05/09 12:24:23;;;;;;;3.63;1.90;;;;;;;;;;5075229;28;20051;-64
2021/05/09 12:27:17;;;;;;;4.40;2.30;;;;;;;;;;5075133;28;20096;-63
2021/05/09 12:29:44;;;;;;;3.17;1.73;;;;;;;;;;5071774;28;20032;-64
2021/05/09 12:32:31;;;;;;;3.92;2.00;;;;;;;;;;5074928;28;20059;-64
2021/05/09 12:35:11;;;;;;;5.50;2.40;;;;;;;;;;5074836;28;20029;-64
2021/05/09 12:37:51;;;;;;;3.72;2.20;;;;;;;;;;5074821;28;20132;-62
2021/05/09 12:40:27;;;;;;;3.95;2.28;;;;;;;;;;5074974;28;20025;-64
2021/05/09 12:43:07;;;;;;;5.03;2.30;;;;;;;;;;5074818;28;20134;-64
2021/05/09 12:45:48;;;;;;;7.35;2.33;;;;;;;;;;5074856;28;20019;-64
2021/05/09 12:48:31;;;;;;;4.43;2.15;;;;;;;;;;5074744;28;20029;-64
2021/05/09 12:50:57;;;;;;;;;;;;;;;;;;5074907;28;20025;-63
2021/05/09 12:53:41;;;;;;;4.00;1.92;;;;;;;;;;5074518;28;19904;-63
2021/05/09 12:56:17;;;;;;;5.43;2.72;;;;;;;;;;5074415;28;20353;-64
2021/05/09 12:59:03;;;;;;;4.72;2.10;;;;;;;;;;5074502;28;20024;-64
2021/05/09 13:01:31;;;;;;;4.32;2.30;;;;;;;;;;5074276;28;20135;-65
2021/05/09 13:03:58;;;;;;;4.22;2.33;;;;;;;;;;5074380;28;20103;-63
2021/05/09 13:06:25;;;;;;;5.18;2.40;;;;;;;;;;5074060;28;20056;-64
2021/05/09 13:08:53;;;;;;;4.10;1.80;;;;;;;;;;5074310;28;20063;-63
2021/05/09 13:11:21;;;;;;;4.80;2.30;;;;;;;;;;5074401;28;20512;-63
2021/05/09 13:13:48;;;;;;;4.93;2.22;;;;;;;;;;5073740;28;20143;-63
2021/05/09 13:16:15;;;;;;;4.95;2.38;;;;;;;;;;5073729;28;20037;-62
2021/05/09 13:18:43;;;;;;;5.75;2.50;;;;;;;;;;5074047;28;20078;-62
2021/05/09 13:21:10;;;;;;;4.65;2.67;;;;;;;;;;5056068;28;20025;-63
2021/05/09 13:23:37;;;;;;;3.55;2.10;;;;;;;;;;5073965;28;20020;-63
2021/05/09 13:26:04;;;;;;;5.47;2.13;;;;;;;;;;5073999;28;20025;-64
2021/05/09 13:28:31;;;;;;;3.63;2.08;;;;;;;;;;5073900;28;20028;-62
2021/05/09 13:30:58;;;;;;;4.38;2.05;;;;;;;;;;5073633;28;20029;-61
2021/05/09 13:33:25;;;;;;;5.15;2.45;;;;;;;;;;5068344;28;20046;-61
2021/05/09 13:35:53;;;;;;;5.60;2.40;;;;;;;;;;5066709;28;20036;-60
2021/05/09 13:38:20;;;;;;;4.65;2.00;;;;;;;;;;5064148;28;20032;-61
2021/05/09 13:40:47;;;;;;;4.90;1.98;;;;;;;;;;5061204;28;20025;-60
2021/05/09 13:43:14;;;;;;;4.90;2.30;;;;;;;;;;5064218;28;20029;-61
2021/05/09 13:45:41;;;;;;;3.28;2.05;;;;;;;;;;5060493;28;20031;-60
2021/05/09 13:48:08;;;;;;;6.10;2.38;;;;;;;;;;5062084;28;20389;-60
2021/05/09 13:50:36;;;;;;;4.13;2.10;;;;;;;;;;5056198;28;20115;-61
2021/05/09 13:53:03;;;;;;;5.47;2.22;;;;;;;;;;5066127;28;20042;-61
2021/05/09 13:55:30;;;;;;;5.63;2.38;;;;;;;;;;5065149;28;20412;-62
2021/05/09 13:57:57;;;;;;;3.75;2.30;;;;;;;;;;5065805;28;20032;-61
2021/05/09 14:00:24;;;;;;;7.65;2.58;;;;;;;;;;5065128;28;20025;-61
2021/05/09 14:02:51;;;;;;;4.85;2.20;;;;;;;;;;5068337;28;20032;-63
2021/05/09 14:05:18;;;;;;;15.07;2.58;;;;;;;;;;5066215;28;20021;-61
2021/05/09 14:07:46;;;;;;;3.50;2.08;;;;;;;;;;5062930;28;20068;-61
2021/05/09 14:10:13;;;;;;;6.38;1.98;;;;;;;;;;5062773;28;20549;-61
2021/05/09 14:12:40;;;;;;;6.90;2.33;;;;;;;;;;5069636;28;20021;-61
2021/05/09 14:15:08;;;;;;;5.07;2.13;;;;;;;;;;5059239;28;20032;-61
2021/05/09 14:17:36;;;;;;;3.75;2.35;;;;;;;;;;5052904;28;20381;-62
2021/05/09 14:20:03;;;;;;;6.13;2.67;;;;;;;;;;5061729;28;20052;-61
2021/05/09 14:22:30;;;;;;;7.53;2.78;;;;;;;;;;5061497;28;20020;-61
2021/05/09 14:24:57;;;;;;;5.10;2.13;;;;;;;;;;5050065;28;20109;-62
2021/05/09 14:27:24;;;;;;;6.57;2.33;;;;;;;;;;5064383;28;20024;-62
2021/05/09 14:29:52;;;;;;;7.95;2.60;;;;;;;;;;5056241;28;20056;-63
2021/05/09 14:32:19;;;;;;;9.07;3.17;;;;;;;;;;5060856;28;20044;-61
2021/05/09 14:34:46;;;;;;;5.82;2.20;;;;;;;;;;5068187;28;20059;-60
2021/05/09 14:37:14;;;;;;;5.20;2.10;;;;;;;;;;5065755;28;20056;-61
2021/05/09 14:39:43;;;;;;;12.25;2.50;;;;;;;;;;5068235;28;20403;-61
2021/05/09 14:42:10;;;;;;;8.07;2.28;;;;;;;;;;5068399;28;20033;-60
2021/05/09 14:44:38;;;;;;;14.02;2.42;;;;;;;;;;5065295;28;20031;-61
2021/05/09 14:47:06;;;;;;;6.10;2.25;;;;;;;;;;5066085;28;20029;-61
2021/05/09 14:49:33;;;;;;;6.22;2.47;;;;;;;;;;5061727;28;20365;-62
2021/05/09 14:52:01;;;;;;;15.40;2.25;;;;;;;;;;5069298;28;20056;-61
2021/05/09 14:54:28;;;;;;;9.38;2.03;;;;;;;;;;5048774;28;20020;-61